Time;durP1;ratioP1;P1;durP2;ratioP2;P2;SDS_P1;SDS_P2;PMS_P1;PMS_P2;Temp;Humidity;BMP_temperature;BMP_pressure;BME280_temperature;BME280_humidity;BME280_pressure;Samples;Min_cycle;Max_cycle;Signal;HPM_P1;HPM_P2
2022/02/12 00:01:57;;;;;;;20.48;8.30;;;-1.20;99.90;;;;;;4947278;28;20046;-78
2022/02/12 00:04:23;;;;;;;20.88;7.25;;;-1.20;99.90;;;;;;4959619;28;20053;-79
2022/02/12 00:06:49;;;;;;;19.70;7.47;;;-1.20;99.90;;;;;;4939020;28;20471;-79
2022/02/12 00:09:14;;;;;;;19.13;7.88;;;-1.20;99.90;;;;;;4961072;28;20030;-79
2022/02/12 00:11:41;;;;;;;18.67;7.32;;;-1.30;99.90;;;;;;4943655;28;20146;-79
2022/02/12 00:14:06;;;;;;;17.35;7.80;;;-1.20;99.90;;;;;;4956257;28;20046;-79
2022/02/12 00:16:32;;;;;;;19.23;7.68;;;-1.20;99.90;;;;;;4944615;28;20034;-78
2022/02/12 00:18:58;;;;;;;17.55;7.10;;;-1.30;99.90;;;;;;4926286;28;20073;-79
2022/02/12 00:21:24;;;;;;;17.02;7.82;;;-1.30;99.90;;;;;;4962098;28;20042;-79
2022/02/12 00:23:50;;;;;;;21.77;7.55;;;-1.20;99.90;;;;;;4951363;29;20047;-78
2022/02/12 00:26:16;;;;;;;21.38;7.50;;;-1.30;99.90;;;;;;4939095;29;20030;-79
2022/02/12 00:28:42;;;;;;;22.83;7.72;;;-1.20;99.90;;;;;;4938063;29;20032;-80
2022/02/12 00:31:10;;;;;;;20.67;7.75;;;-1.20;99.90;;;;;;4934893;29;20040;-79
2022/02/12 00:33:36;;;;;;;18.65;7.32;;;-1.20;99.90;;;;;;4952519;29;20142;-79
2022/02/12 00:36:02;;;;;;;23.88;7.07;;;-1.30;99.90;;;;;;4918155;29;20064;-79
2022/02/12 00:38:28;;;;;;;16.65;6.47;;;-1.30;99.90;;;;;;4920271;29;20054;-79
2022/02/12 00:40:53;;;;;;;15.98;6.82;;;-1.30;99.90;;;;;;4939451;29;20040;-79
2022/02/12 00:43:19;;;;;;;14.48;5.80;;;-1.30;99.90;;;;;;4923652;29;20019;-79
2022/02/12 00:45:48;;;;;;;20.45;6.43;;;-1.30;99.90;;;;;;4923758;29;20070;-79
2022/02/12 00:48:13;;;;;;;18.98;7.10;;;-1.20;99.90;;;;;;4939334;29;20120;-80
2022/02/12 00:50:39;;;;;;;15.75;5.85;;;-1.20;99.90;;;;;;4939203;29;20075;-79
2022/02/12 00:53:05;;;;;;;20.13;7.13;;;-1.30;99.90;;;;;;4937196;29;20047;-79
2022/02/12 00:55:30;;;;;;;20.33;6.47;;;-1.30;99.90;;;;;;4954195;29;20103;-79
2022/02/12 00:57:56;;;;;;;17.02;6.72;;;-1.30;99.90;;;;;;4923280;29;20032;-79
2022/02/12 01:00:22;;;;;;;21.05;6.95;;;-1.30;99.90;;;;;;4922979;29;20124;-79
2022/02/12 01:02:47;;;;;;;17.83;6.20;;;-1.30;99.90;;;;;;4906003;29;20038;-79
2022/02/12 01:05:13;;;;;;;16.75;6.55;;;-1.30;99.90;;;;;;4919784;29;20035;-79
2022/02/12 01:07:39;;;;;;;18.20;6.63;;;-1.20;99.90;;;;;;4938755;29;20047;-79
2022/02/12 01:10:05;;;;;;;19.48;7.13;;;-1.20;99.90;;;;;;4938962;29;20103;-79
2022/02/12 01:12:30;;;;;;;18.75;6.40;;;-1.20;99.90;;;;;;4940616;29;20864;-79
2022/02/12 01:14:56;;;;;;;14.90;5.93;;;-1.20;99.90;;;;;;4938501;29;20031;-79
2022/02/12 01:17:22;;;;;;;15.85;6.20;;;-1.20;99.90;;;;;;4940332;29;20024;-79
2022/02/12 01:19:49;;;;;;;13.57;5.43;;;-1.20;99.90;;;;;;4939978;29;20075;-79
2022/02/12 01:22:16;;;;;;;17.23;6.60;;;-1.30;99.90;;;;;;4921188;29;20027;-79
2022/02/12 01:24:42;;;;;;;16.02;5.93;;;-1.20;99.90;;;;;;4951974;28;20062;-79
2022/02/12 01:27:08;;;;;;;18.65;6.32;;;-1.20;99.90;;;;;;4941020;29;20020;-80
2022/02/12 01:29:34;;;;;;;16.00;6.30;;;-1.20;99.90;;;;;;4959724;29;20034;-79
2022/02/12 01:32:09;;;;;;;16.83;5.78;;;-1.30;99.90;;;;;;4958968;28;20047;-80
2022/02/12 01:34:36;;;;;;;22.42;6.47;;;-1.30;99.90;;;;;;4974083;28;20042;-80
2022/02/12 01:37:04;;;;;;;18.25;6.45;;;-1.30;99.90;;;;;;4960072;28;20147;-80
2022/02/12 01:39:31;;;;;;;17.38;6.63;;;-1.20;99.90;;;;;;4971437;28;20515;-80
2022/02/12 01:41:56;;;;;;;19.48;6.68;;;-1.20;99.90;;;;;;4961898;28;20031;-79
2022/02/12 01:44:34;;;;;;;19.85;6.50;;;-1.20;99.90;;;;;;4961155;28;20519;-79
2022/02/12 01:47:00;;;;;;;18.15;6.45;;;-1.10;99.90;;;;;;4977374;28;20027;-79
2022/02/12 01:49:26;;;;;;;22.05;7.03;;;-1.20;99.90;;;;;;4962773;28;20035;-79
2022/02/12 01:51:54;;;;;;;19.13;6.75;;;-1.30;99.90;;;;;;4961144;29;20035;-78
2022/02/12 01:54:20;;;;;;;19.08;6.13;;;-1.20;99.90;;;;;;4960009;28;20664;-78
2022/02/12 01:56:46;;;;;;;17.83;6.05;;;-1.20;99.90;;;;;;4959323;28;20027;-78
2022/02/12 01:59:13;;;;;;;20.90;6.57;;;-1.30;99.90;;;;;;4978860;28;20431;-79
2022/02/12 02:01:39;;;;;;;15.45;6.38;;;-1.30;99.90;;;;;;4960879;28;20091;-79
2022/02/12 02:04:06;;;;;;;18.38;6.80;;;-1.30;99.90;;;;;;4945003;29;20058;-79
2022/02/12 02:06:32;;;;;;;23.17;6.80;;;-1.30;99.90;;;;;;4960390;28;20028;-79
2022/02/12 02:09:03;;;;;;;15.32;6.93;;;-1.30;99.90;;;;;;4957958;29;20061;-79
2022/02/12 02:11:30;;;;;;;13.52;5.93;;;-1.30;99.90;;;;;;4978415;28;20023;-79
2022/02/12 02:13:56;;;;;;;21.85;6.50;;;-1.30;99.90;;;;;;4941580;29;20028;-79
2022/02/12 02:16:21;;;;;;;21.40;6.40;;;-1.30;99.90;;;;;;4930330;29;20044;-79
2022/02/12 02:18:47;;;;;;;17.38;6.78;;;-1.30;99.90;;;;;;4960218;28;20047;-78
2022/02/12 02:21:17;;;;;;;18.13;6.45;;;-1.30;99.90;;;;;;4976426;28;20035;-79
2022/02/12 02:23:43;;;;;;;18.40;6.60;;;-1.40;99.90;;;;;;4960178;28;20031;-78
2022/02/12 02:26:13;;;;;;;18.88;7.55;;;-1.30;99.90;;;;;;4961676;28;20034;-78
2022/02/12 02:28:38;;;;;;;17.55;6.00;;;-1.40;99.90;;;;;;4982353;28;20027;-78
2022/02/12 02:31:04;;;;;;;16.20;6.15;;;-1.30;99.90;;;;;;4947769;28;20055;-79
2022/02/12 02:33:30;;;;;;;18.10;6.07;;;-1.30;99.90;;;;;;4963732;28;20031;-79
2022/02/12 02:35:55;;;;;;;16.63;6.50;;;-1.30;99.90;;;;;;4958219;28;20038;-77
2022/02/12 02:38:23;;;;;;;17.88;5.90;;;-1.30;99.90;;;;;;4963736;28;20094;-77
2022/02/12 02:40:49;;;;;;;20.90;7.50;;;-1.30;99.90;;;;;;4962843;28;20414;-77
2022/02/12 02:43:14;;;;;;;23.15;7.45;;;-1.30;99.90;;;;;;4961878;28;20054;-77
2022/02/12 02:45:40;;;;;;;19.25;7.28;;;-1.30;99.90;;;;;;4964718;28;20390;-77
2022/02/12 02:48:09;;;;;;;15.50;6.45;;;-1.30;99.90;;;;;;4961346;28;20039;-78
2022/02/12 02:56:10;;;;;;;17.10;6.35;;;-1.30;99.90;;;;;;4963678;28;20109;-77
2022/02/12 02:58:42;;;;;;;16.17;6.75;;;-1.30;99.90;;;;;;4978870;28;20392;-78
2022/02/12 03:01:10;;;;;;;16.63;6.88;;;-1.30;99.90;;;;;;4960951;28;20046;-78
2022/02/12 03:03:40;;;;;;;16.52;7.03;;;-1.30;99.90;;;;;;4979821;28;20118;-78
2022/02/12 03:06:07;;;;;;;18.17;6.85;;;-1.30;99.90;;;;;;4960581;28;20069;-78
2022/02/12 03:08:33;;;;;;;19.05;6.55;;;-1.30;99.90;;;;;;4962799;28;20026;-83
2022/02/12 03:11:00;;;;;;;17.92;7.05;;;-1.20;99.90;;;;;;4959633;28;20031;-81
2022/02/12 03:13:26;;;;;;;16.23;5.72;;;-1.20;99.90;;;;;;4974000;28;20137;-78
2022/02/12 03:15:52;;;;;;;16.27;6.53;;;-1.20;99.90;;;;;;4979241;28;20023;-77
2022/02/12 03:18:18;;;;;;;20.27;6.00;;;-1.20;99.90;;;;;;4963145;28;20117;-77
2022/02/12 03:20:44;;;;;;;17.95;6.13;;;-1.20;99.90;;;;;;4949393;28;20035;-77
2022/02/12 03:23:10;;;;;;;19.25;6.05;;;-1.10;99.90;;;;;;4972665;28;20037;-77
2022/02/12 03:25:35;;;;;;;19.77;6.32;;;-1.20;99.90;;;;;;4952734;28;20082;-77
2022/02/12 03:28:03;;;;;;;16.48;5.80;;;-1.10;99.90;;;;;;4976661;28;20042;-77
2022/02/12 03:30:31;;;;;;;18.67;5.88;;;-1.10;99.90;;;;;;4973867;28;20114;-78
2022/02/12 03:32:57;;;;;;;16.92;5.60;;;-1.10;99.90;;;;;;4962241;28;20050;-78
2022/02/12 03:35:23;;;;;;;15.90;5.72;;;-1.10;99.90;;;;;;4972891;28;20495;-77
2022/02/12 03:38:12;;;;;;;13.68;5.45;;;-1.10;99.90;;;;;;4979497;28;20428;-78
2022/02/12 03:40:40;;;;;;;19.55;5.88;;;-1.10;99.90;;;;;;4965360;28;20038;-78
2022/02/12 03:43:06;;;;;;;20.63;6.18;;;-1.10;99.90;;;;;;4967893;28;20037;-78
2022/02/12 03:45:32;;;;;;;13.88;5.70;;;-1.10;99.90;;;;;;4980570;28;20023;-79
2022/02/12 03:47:58;;;;;;;13.77;5.55;;;-1.10;99.90;;;;;;4946415;28;20023;-78
2022/02/12 03:50:25;;;;;;;14.07;5.20;;;-1.10;99.90;;;;;;4976269;28;20023;-78
2022/02/12 03:52:50;;;;;;;14.40;5.63;;;-1.10;99.90;;;;;;4975090;28;20023;-78
2022/02/12 03:55:17;;;;;;;18.00;5.38;;;-1.20;99.90;;;;;;4946239;28;20522;-78
2022/02/12 03:57:43;;;;;;;20.50;5.75;;;-1.20;99.90;;;;;;4960590;28;20035;-78
2022/02/12 04:00:12;;;;;;;24.25;6.38;;;-1.20;99.90;;;;;;4979092;28;20038;-78
2022/02/12 04:02:39;;;;;;;22.75;6.65;;;-1.10;99.90;;;;;;4972241;28;20081;-78
2022/02/12 04:05:05;;;;;;;20.17;6.35;;;-1.10;99.90;;;;;;4957159;28;20029;-78
2022/02/12 04:07:31;;;;;;;19.70;5.97;;;-1.10;99.90;;;;;;4975435;28;20066;-78
2022/02/12 04:09:56;;;;;;;18.13;6.32;;;-1.00;99.90;;;;;;4944905;28;20031;-78
2022/02/12 04:12:22;;;;;;;16.73;5.65;;;-1.00;99.90;;;;;;4966550;28;20857;-78
2022/02/12 04:14:48;;;;;;;15.95;7.10;;;-0.90;99.90;;;;;;4964529;28;20045;-78
2022/02/12 04:17:15;;;;;;;17.80;6.90;;;-0.90;99.90;;;;;;4949268;28;20027;-78
2022/02/12 04:19:40;;;;;;;19.70;7.00;;;-0.90;99.90;;;;;;4986329;28;20082;-78
2022/02/12 04:22:07;;;;;;;17.05;6.40;;;-0.90;99.90;;;;;;4952314;28;20043;-77
2022/02/12 04:24:33;;;;;;;19.92;6.15;;;-0.90;99.90;;;;;;4968716;28;20074;-77
2022/02/12 04:26:58;;;;;;;19.60;6.53;;;-0.90;99.90;;;;;;4948726;28;20042;-77
2022/02/12 04:29:24;;;;;;;15.15;7.03;;;-0.90;99.90;;;;;;4945872;28;20023;-77
2022/02/12 04:31:50;;;;;;;19.05;8.27;;;-0.90;99.90;;;;;;4977903;28;20466;-77
2022/02/12 04:34:15;;;;;;;19.45;7.35;;;-0.90;99.90;;;;;;4945572;28;20026;-77
2022/02/12 04:36:41;;;;;;;19.38;7.32;;;-0.90;99.90;;;;;;4944688;28;20038;-78
2022/02/12 04:39:07;;;;;;;21.63;7.43;;;-0.90;99.90;;;;;;4943208;28;20534;-78
2022/02/12 04:41:33;;;;;;;20.95;7.32;;;-0.90;99.90;;;;;;4940719;28;20463;-77
2022/02/12 04:43:58;;;;;;;23.60;8.00;;;-0.90;99.90;;;;;;4943504;28;20618;-77
2022/02/12 04:46:24;;;;;;;22.60;8.05;;;-1.00;99.90;;;;;;4961340;28;20106;-77
2022/02/12 04:48:50;;;;;;;20.17;7.85;;;-1.00;99.90;;;;;;4959955;28;20707;-77
2022/02/12 04:51:16;;;;;;;19.92;7.65;;;-1.00;99.90;;;;;;4959776;28;20023;-77
2022/02/12 04:53:43;;;;;;;19.25;8.45;;;-1.00;99.90;;;;;;4977224;28;20039;-78
2022/02/12 04:56:09;;;;;;;18.63;7.78;;;-1.00;99.90;;;;;;4978617;28;20046;-78
2022/02/12 04:58:34;;;;;;;23.42;8.18;;;-1.10;99.90;;;;;;4977814;28;20011;-78
2022/02/12 05:01:00;;;;;;;18.90;7.25;;;-1.10;99.90;;;;;;4958288;28;20507;-78
2022/02/12 05:03:26;;;;;;;23.27;7.18;;;-1.00;99.90;;;;;;4958433;28;20027;-81
2022/02/12 05:05:52;;;;;;;22.05;7.85;;;-1.10;99.90;;;;;;4960027;28;20033;-78
2022/02/12 05:08:18;;;;;;;20.67;8.20;;;-1.10;99.90;;;;;;4945404;28;20038;-78
2022/02/12 05:10:44;;;;;;;25.20;8.82;;;-1.00;99.90;;;;;;4945705;28;20099;-78
2022/02/12 05:13:09;;;;;;;22.95;9.13;;;-1.00;99.90;;;;;;4959324;28;20070;-78
2022/02/12 05:15:35;;;;;;;25.30;9.60;;;-1.00;99.90;;;;;;4945178;28;20499;-77
2022/02/12 05:18:01;;;;;;;21.38;9.05;;;-1.00;99.90;;;;;;4946072;28;20031;-77
2022/02/12 05:20:27;;;;;;;21.40;8.43;;;-1.00;99.90;;;;;;4966745;28;20035;-77
2022/02/12 05:22:52;;;;;;;19.70;8.80;;;-0.90;99.90;;;;;;4945308;28;20022;-78
2022/02/12 05:25:18;;;;;;;18.95;8.90;;;-0.90;99.90;;;;;;4965279;28;20047;-78
2022/02/12 05:27:44;;;;;;;19.55;8.60;;;-0.90;99.90;;;;;;4962452;28;20030;-77
2022/02/12 05:30:10;;;;;;;21.20;9.02;;;-0.90;99.90;;;;;;4962772;28;20066;-77
2022/02/12 05:32:36;;;;;;;25.75;8.80;;;-1.00;99.90;;;;;;4980742;28;20038;-77
2022/02/12 05:35:02;;;;;;;22.50;9.20;;;-1.00;99.90;;;;;;4962817;28;20476;-78
2022/02/12 05:37:28;;;;;;;19.70;8.30;;;-1.00;99.90;;;;;;4949159;28;20499;-77
2022/02/12 05:39:53;;;;;;;27.60;9.27;;;-1.00;99.90;;;;;;4963000;28;20039;-78
2022/02/12 05:42:19;;;;;;;22.58;9.82;;;-0.90;99.90;;;;;;4950753;28;20027;-78
2022/02/12 05:44:45;;;;;;;22.80;9.75;;;-0.90;99.90;;;;;;4976378;28;20054;-79
2022/02/12 05:47:10;;;;;;;22.42;10.15;;;-0.90;99.90;;;;;;4947656;28;20027;-79
2022/02/12 05:49:36;;;;;;;26.92;10.50;;;-1.00;99.90;;;;;;4962461;28;20031;-78
2022/02/12 05:52:02;;;;;;;22.52;9.60;;;-1.00;99.90;;;;;;4947260;28;20043;-78
2022/02/12 05:54:28;;;;;;;25.63;10.10;;;-0.90;99.90;;;;;;4965840;28;20031;-79
2022/02/12 05:56:54;;;;;;;27.00;10.88;;;-0.90;99.90;;;;;;4948098;28;20062;-78
2022/02/12 05:59:20;;;;;;;31.00;11.45;;;-0.90;99.90;;;;;;4948607;28;20639;-77
2022/02/12 06:01:46;;;;;;;27.88;10.57;;;-0.90;99.90;;;;;;4964050;28;20303;-78
2022/02/12 06:04:12;;;;;;;22.15;11.30;;;-0.90;99.90;;;;;;4947585;28;20042;-77
2022/02/12 06:06:38;;;;;;;23.10;10.85;;;-0.90;99.90;;;;;;4964026;28;20027;-78
2022/02/12 06:09:03;;;;;;;31.98;12.98;;;-0.90;99.90;;;;;;4946307;28;20369;-78
2022/02/12 06:11:29;;;;;;;26.95;11.80;;;-0.70;99.90;;;;;;4949124;28;20384;-78
2022/02/12 06:13:55;;;;;;;23.80;11.30;;;-0.80;99.90;;;;;;4964387;28;20045;-78
2022/02/12 06:16:23;;;;;;;27.75;12.18;;;-0.80;99.90;;;;;;4948122;28;20023;-78
2022/02/12 06:18:49;;;;;;;30.52;12.32;;;-0.80;99.90;;;;;;4978016;28;20035;-78
2022/02/12 06:21:15;;;;;;;26.88;11.80;;;-0.80;99.90;;;;;;4964162;28;20434;-78
2022/02/12 06:23:41;;;;;;;28.77;12.85;;;-0.80;99.90;;;;;;4977940;28;20034;-78
2022/02/12 06:26:08;;;;;;;24.58;12.77;;;-0.70;99.90;;;;;;4960916;28;20027;-78
2022/02/12 06:28:34;;;;;;;28.25;12.25;;;-0.80;99.90;;;;;;4979160;28;20019;-78
2022/02/12 06:31:03;;;;;;;26.77;12.63;;;-0.70;99.90;;;;;;4978936;28;20027;-78
2022/02/12 06:33:30;;;;;;;28.10;11.98;;;-0.80;99.90;;;;;;4960252;28;20039;-78
2022/02/12 06:35:56;;;;;;;24.85;11.95;;;-0.70;99.90;;;;;;4976451;28;20034;-78
2022/02/12 06:38:22;;;;;;;25.55;12.45;;;-0.70;99.90;;;;;;4964886;28;20097;-78
2022/02/12 06:40:48;;;;;;;26.52;12.30;;;-0.70;99.90;;;;;;4965503;28;20058;-78
2022/02/12 06:43:14;;;;;;;28.30;12.50;;;-0.80;99.90;;;;;;4960180;28;20027;-78
2022/02/12 06:45:40;;;;;;;26.85;12.95;;;-0.70;99.90;;;;;;4962530;28;20078;-78
2022/02/12 06:48:06;;;;;;;30.00;12.85;;;-0.70;99.90;;;;;;4977503;28;20103;-78
2022/02/12 06:50:32;;;;;;;28.33;13.10;;;-0.80;99.90;;;;;;4979480;28;20030;-78
2022/02/12 06:52:59;;;;;;;24.20;12.45;;;-0.80;99.90;;;;;;4961943;28;20057;-78
2022/02/12 06:55:25;;;;;;;25.13;12.48;;;-0.80;99.90;;;;;;4961078;28;20022;-78
2022/02/12 06:57:51;;;;;;;26.33;12.23;;;-0.80;99.90;;;;;;4980760;28;20085;-78
2022/02/12 07:00:18;;;;;;;29.02;12.38;;;-0.80;99.90;;;;;;4946300;28;20109;-78
2022/02/12 07:02:43;;;;;;;29.30;12.68;;;-0.80;99.90;;;;;;4980272;28;20463;-78
2022/02/12 07:05:09;;;;;;;24.13;13.13;;;-0.90;99.90;;;;;;4960552;28;20023;-78
2022/02/12 07:07:49;;;;;;;27.35;12.75;;;-0.80;99.90;;;;;;4948789;28;20037;-78
2022/02/12 07:10:16;;;;;;;23.65;12.73;;;-0.80;99.90;;;;;;4977975;28;20046;-78
2022/02/12 07:12:43;;;;;;;26.05;12.68;;;-0.80;99.90;;;;;;4963597;28;20134;-78
2022/02/12 07:15:09;;;;;;;24.92;13.13;;;-0.80;99.90;;;;;;4941393;28;20062;-79
2022/02/12 07:17:39;;;;;;;28.33;13.70;;;-0.80;99.90;;;;;;4972079;28;20085;-82
2022/02/12 07:20:07;;;;;;;27.80;13.90;;;-0.80;99.90;;;;;;4973786;28;20031;-86
2022/02/12 07:22:33;;;;;;;39.10;18.52;;;-0.70;99.90;;;;;;4963086;28;20027;-82
2022/02/12 07:24:58;;;;;;;35.10;16.98;;;-0.70;99.90;;;;;;4962394;28;20091;-83
2022/02/12 07:27:24;;;;;;;38.95;17.73;;;-0.70;99.90;;;;;;4959582;28;20034;-83
2022/02/12 07:29:50;;;;;;;36.05;17.08;;;-0.70;99.90;;;;;;4955960;28;20118;-78
2022/02/12 07:32:15;;;;;;;29.83;15.55;;;-0.60;99.90;;;;;;4962256;28;20035;-80
2022/02/12 07:34:41;;;;;;;30.52;15.65;;;-0.60;99.90;;;;;;4961579;28;20031;-78
2022/02/12 07:37:07;;;;;;;25.77;15.13;;;-0.50;99.90;;;;;;4976488;28;20046;-77
2022/02/12 07:39:32;;;;;;;28.48;15.63;;;-0.50;99.90;;;;;;4973025;28;20056;-77
2022/02/12 07:41:58;;;;;;;28.75;14.60;;;-0.50;99.90;;;;;;4932448;28;20047;-77
2022/02/12 07:44:24;;;;;;;34.10;17.15;;;-0.40;99.90;;;;;;4963339;28;20222;-77
2022/02/12 07:46:50;;;;;;;31.42;17.02;;;-0.30;99.90;;;;;;4962263;28;20051;-77
2022/02/12 07:49:16;;;;;;;31.25;16.88;;;-0.30;99.90;;;;;;4964326;28;20515;-77
2022/02/12 07:51:42;;;;;;;26.63;15.77;;;-0.30;99.90;;;;;;4972829;28;20022;-77
2022/02/12 07:54:09;;;;;;;32.38;15.77;;;-0.30;99.90;;;;;;4960605;28;20078;-76
2022/02/12 07:56:35;;;;;;;27.85;15.52;;;-0.20;99.90;;;;;;4954797;28;20060;-77
2022/02/12 07:59:01;;;;;;;29.35;15.38;;;-0.20;99.90;;;;;;4978767;28;20039;-77
2022/02/12 08:01:27;;;;;;;36.38;16.55;;;-0.20;99.90;;;;;;4946278;28;20033;-77
2022/02/12 08:03:52;;;;;;;31.98;15.60;;;-0.20;99.90;;;;;;4980956;28;20050;-77
2022/02/12 08:09:02;;;;;;;36.45;17.02;;;-0.10;99.90;;;;;;4965453;28;20073;-77
2022/02/12 08:11:35;;;;;;;30.38;17.23;;;0.00;99.90;;;;;;4964823;28;20042;-77
2022/02/12 08:14:00;;;;;;;32.63;17.92;;;0.00;99.90;;;;;;4953660;28;20057;-77
2022/02/12 08:16:26;;;;;;;32.63;16.65;;;0.10;99.90;;;;;;4964927;28;20030;-77
2022/02/12 08:18:52;;;;;;;35.92;17.13;;;0.10;99.90;;;;;;4946279;28;20062;-76
2022/02/12 08:21:17;;;;;;;26.98;15.55;;;0.20;99.90;;;;;;4965216;28;20023;-77
2022/02/12 08:23:43;;;;;;;30.33;14.93;;;0.30;99.90;;;;;;4963078;28;20471;-76
2022/02/12 08:26:09;;;;;;;29.92;14.40;;;0.30;99.90;;;;;;4978954;28;20039;-77
2022/02/12 08:28:34;;;;;;;25.38;14.63;;;0.40;99.90;;;;;;4963457;28;20031;-77
2022/02/12 08:31:00;;;;;;;26.77;15.05;;;0.40;99.90;;;;;;4963398;28;20058;-76
2022/02/12 08:33:26;;;;;;;25.58;14.48;;;0.40;99.90;;;;;;4948129;28;20467;-77
2022/02/12 08:35:52;;;;;;;27.15;14.63;;;0.50;99.90;;;;;;4945469;28;20038;-76
2022/02/12 08:38:17;;;;;;;26.40;15.32;;;0.60;99.90;;;;;;4964024;28;20180;-76
2022/02/12 08:40:43;;;;;;;27.20;13.23;;;0.60;99.90;;;;;;4962551;28;20054;-76
2022/02/12 08:43:11;;;;;;;28.63;13.80;;;0.70;99.90;;;;;;4960523;28;20031;-77
2022/02/12 08:45:38;;;;;;;31.10;17.48;;;0.70;99.90;;;;;;4970609;28;20138;-79
2022/02/12 08:48:06;;;;;;;32.95;17.65;;;0.80;99.90;;;;;;4968965;28;20406;-78
2022/02/12 08:50:31;;;;;;;35.92;17.63;;;0.90;99.90;;;;;;4944847;28;20046;-77
2022/02/12 08:52:57;;;;;;;30.67;15.70;;;0.90;99.90;;;;;;4970739;28;20739;-77
2022/02/12 08:55:24;;;;;;;37.33;14.90;;;1.00;99.90;;;;;;4976828;28;20569;-77
2022/02/12 08:57:50;;;;;;;32.45;17.60;;;1.10;99.90;;;;;;4959377;28;20026;-77
2022/02/12 09:00:16;;;;;;;29.35;15.07;;;1.10;99.90;;;;;;4958474;28;20111;-77
2022/02/12 09:02:42;;;;;;;23.65;13.65;;;1.20;99.90;;;;;;4959837;28;20134;-77
2022/02/12 09:05:08;;;;;;;26.00;12.77;;;1.20;99.90;;;;;;4975483;28;20019;-77
2022/02/12 09:07:34;;;;;;;26.92;12.93;;;1.30;99.90;;;;;;4943369;28;20034;-77
2022/02/12 09:10:01;;;;;;;25.38;12.13;;;1.40;99.90;;;;;;4943668;28;20135;-77
2022/02/12 09:12:28;;;;;;;24.55;12.18;;;1.40;99.90;;;;;;4962390;28;20033;-76
2022/02/12 09:14:53;;;;;;;25.35;12.70;;;1.50;99.90;;;;;;4977302;28;20019;-77
2022/02/12 09:17:19;;;;;;;30.00;12.32;;;1.50;99.90;;;;;;4962144;28;20123;-76
2022/02/12 09:19:45;;;;;;;26.15;12.68;;;1.60;99.90;;;;;;4963237;28;20137;-77
2022/02/12 09:22:11;;;;;;;21.92;10.93;;;1.70;99.90;;;;;;4945621;28;20461;-77
2022/02/12 09:24:37;;;;;;;21.25;10.93;;;1.70;99.90;;;;;;4964031;28;20047;-78
2022/02/12 09:27:03;;;;;;;21.52;10.65;;;1.80;99.90;;;;;;4961240;28;20038;-77
2022/02/12 09:29:29;;;;;;;27.80;11.52;;;1.80;99.90;;;;;;4963208;28;20023;-77
2022/02/12 09:31:55;;;;;;;22.88;10.32;;;1.90;99.90;;;;;;4945185;28;20042;-76
2022/02/12 09:34:20;;;;;;;21.75;9.70;;;2.00;99.90;;;;;;4962030;28;20074;-77
2022/02/12 09:36:46;;;;;;;19.40;9.40;;;2.00;99.90;;;;;;4961521;28;20863;-77
2022/02/12 09:39:12;;;;;;;21.60;8.25;;;2.10;99.90;;;;;;4943460;28;20554;-77
2022/02/12 09:41:37;;;;;;;20.50;9.30;;;2.30;99.90;;;;;;4948132;28;20027;-77
2022/02/12 09:44:04;;;;;;;25.83;9.68;;;2.40;99.90;;;;;;4943243;28;20129;-78
2022/02/12 09:46:35;;;;;;;20.95;11.20;;;2.40;99.90;;;;;;4980413;28;20058;-76
2022/02/12 09:49:03;;;;;;;21.08;8.68;;;2.50;99.90;;;;;;4977099;28;20027;-77
2022/02/12 09:51:30;;;;;;;22.48;9.93;;;2.60;99.90;;;;;;4979247;28;20023;-77
2022/02/12 09:53:56;;;;;;;15.63;7.93;;;2.60;99.90;;;;;;4961988;28;20023;-77
2022/02/12 09:56:22;;;;;;;20.15;7.88;;;2.80;99.90;;;;;;4976551;28;20023;-77
2022/02/12 09:58:51;;;;;;;22.48;8.05;;;2.80;99.90;;;;;;4979163;28;20049;-77
2022/02/12 10:01:19;;;;;;;22.05;9.57;;;2.90;99.90;;;;;;4959633;28;20046;-78
2022/02/12 10:03:45;;;;;;;24.35;9.40;;;3.00;99.90;;;;;;4965689;28;20058;-77
2022/02/12 10:06:11;;;;;;;19.42;8.85;;;3.00;99.90;;;;;;4948226;28;20094;-77
2022/02/12 10:08:39;;;;;;;23.70;8.70;;;3.10;99.90;;;;;;4965700;28;20030;-77
2022/02/12 10:11:13;;;;;;;24.10;9.95;;;3.20;99.90;;;;;;4979505;28;20565;-77
2022/02/12 10:13:39;;;;;;;28.63;10.82;;;3.20;99.90;;;;;;4962465;28;20050;-77
2022/02/12 10:16:06;;;;;;;23.15;8.68;;;3.30;99.90;;;;;;4979892;28;20019;-77
2022/02/12 10:18:36;;;;;;;25.23;8.40;;;3.40;99.90;;;;;;4979770;28;20053;-77
2022/02/12 10:21:03;;;;;;;23.85;7.63;;;3.50;99.90;;;;;;4960163;28;20023;-77
2022/02/12 10:23:30;;;;;;;30.02;9.52;;;3.60;99.90;;;;;;4960136;28;20096;-75
2022/02/12 10:26:02;;;;;;;24.10;7.80;;;3.70;99.90;;;;;;4976323;28;20039;-78
2022/02/12 10:28:29;;;;;;;17.10;6.78;;;3.70;99.90;;;;;;4961530;28;20038;-76
2022/02/12 10:30:56;;;;;;;18.70;7.65;;;3.80;99.90;;;;;;4960482;28;20031;-77
2022/02/12 10:33:23;;;;;;;16.90;7.10;;;3.90;99.90;;;;;;4981356;28;20497;-77
2022/02/12 10:36:00;;;;;;;19.77;7.35;;;4.00;99.90;;;;;;4962756;28;20452;-77
2022/02/12 10:38:33;;;;;;;22.10;7.85;;;4.00;99.90;;;;;;4963483;28;20067;-77
2022/02/12 10:41:16;;;;;;;17.10;6.32;;;4.00;99.90;;;;;;4981196;28;20039;-77
2022/02/12 10:43:43;;;;;;;17.67;6.43;;;4.20;99.90;;;;;;4982778;28;20058;-77
2022/02/12 10:46:10;;;;;;;22.20;7.03;;;4.30;99.90;;;;;;4983400;28;20019;-77
2022/02/12 10:48:38;;;;;;;16.92;6.43;;;4.40;99.90;;;;;;4981339;28;20027;-77
2022/02/12 10:51:07;;;;;;;16.52;6.40;;;4.50;99.90;;;;;;4966976;28;20054;-77
2022/02/12 10:53:33;;;;;;;14.70;5.93;;;4.50;99.90;;;;;;4983560;28;20379;-77
2022/02/12 10:56:00;;;;;;;11.65;5.00;;;4.60;99.90;;;;;;4965209;28;20070;-77
2022/02/12 10:58:26;;;;;;;19.25;5.85;;;4.60;99.90;;;;;;4966113;28;20027;-77
2022/02/12 11:00:52;;;;;;;20.17;6.22;;;4.80;99.90;;;;;;4981177;28;20062;-77
2022/02/12 11:03:20;;;;;;;15.77;5.57;;;4.90;99.90;;;;;;4984351;28;20019;-77
2022/02/12 11:05:51;;;;;;;15.38;6.03;;;5.00;99.90;;;;;;4982081;28;20336;-77
2022/02/12 11:08:23;;;;;;;15.82;5.57;;;5.10;99.90;;;;;;4979647;28;20082;-77
2022/02/12 11:10:49;;;;;;;16.88;5.00;;;5.10;99.90;;;;;;4983767;28;20108;-77
2022/02/12 11:13:15;;;;;;;16.13;5.80;;;5.20;99.90;;;;;;4981205;28;20463;-77
2022/02/12 11:15:41;;;;;;;18.45;6.30;;;5.30;99.90;;;;;;4966659;28;20078;-77
2022/02/12 11:18:12;;;;;;;13.90;5.03;;;5.70;99.90;;;;;;4963921;28;20099;-77
2022/02/12 11:20:43;;;;;;;16.95;6.15;;;5.90;99.90;;;;;;4982487;28;20031;-77
2022/02/12 11:23:21;;;;;;;14.68;5.25;;;6.20;99.90;;;;;;4975049;28;20039;-77
2022/02/12 11:26:20;;;;;;;18.33;5.15;;;6.90;99.90;;;;;;4963710;29;20051;-77
2022/02/12 11:28:47;;;;;;;16.85;5.28;;;8.20;99.90;;;;;;4982042;28;20023;-77
2022/02/12 11:31:29;;;;;;;17.63;5.93;;;9.10;99.90;;;;;;4980596;28;20027;-77
2022/02/12 11:34:01;;;;;;;10.30;4.70;;;9.50;99.90;;;;;;4966872;28;20034;-77
2022/02/12 11:36:27;;;;;;;12.18;4.90;;;10.00;97.10;;;;;;4982671;28;20165;-77
2022/02/12 11:39:15;;;;;;;15.80;5.18;;;10.40;87.60;;;;;;4967573;28;20133;-78
2022/02/12 11:41:47;;;;;;;12.75;5.18;;;10.50;81.30;;;;;;4983627;28;20042;-77
2022/02/12 11:44:39;;;;;;;14.73;4.80;;;10.60;72.30;;;;;;4982109;28;20039;-78
2022/02/12 11:47:06;;;;;;;15.45;4.53;;;11.40;77.90;;;;;;4981072;28;20133;-77
2022/02/12 11:49:34;;;;;;;14.27;5.13;;;10.40;71.70;;;;;;4981005;28;20099;-77
2022/02/12 11:52:05;;;;;;;14.02;4.85;;;10.60;73.30;;;;;;4980808;28;20475;-78
2022/02/12 11:54:43;;;;;;;14.50;4.50;;;10.90;80.30;;;;;;4983633;28;20095;-78
2022/02/12 11:57:29;;;;;;;13.90;5.07;;;10.40;74.00;;;;;;4963889;28;20031;-79
2022/02/12 12:00:01;;;;;;;14.23;4.78;;;10.40;70.10;;;;;;4942204;29;20662;-79
2022/02/12 12:02:36;;;;;;;14.85;5.32;;;11.00;78.50;;;;;;4956622;28;20027;-78
2022/02/12 12:05:24;;;;;;;14.05;4.75;;;11.20;76.10;;;;;;4976331;28;20125;-82
2022/02/12 12:08:06;;;;;;;15.05;4.70;;;11.30;67.30;;;;;;4976415;28;20031;-79
2022/02/12 12:10:34;;;;;;;16.90;5.13;;;11.50;68.60;;;;;;4976772;28;20073;-79
2022/02/12 12:13:27;;;;;;;12.30;5.35;;;12.60;74.80;;;;;;4975989;28;20097;-79
2022/02/12 12:15:58;;;;;;;16.08;5.10;;;12.30;64.50;;;;;;4981272;28;20122;-79
2022/02/12 12:18:27;;;;;;;13.35;4.80;;;11.80;62.60;;;;;;4961728;28;20069;-78
2022/02/12 12:20:53;;;;;;;16.30;5.05;;;12.40;61.80;;;;;;4961680;28;20089;-79
2022/02/12 12:23:22;;;;;;;15.43;4.70;;;13.10;65.00;;;;;;4961340;28;20048;-79
2022/02/12 12:25:58;;;;;;;12.50;3.90;;;12.50;58.70;;;;;;4938470;29;20068;-79
2022/02/12 12:28:31;;;;;;;12.77;4.50;;;12.60;61.80;;;;;;4939074;29;20035;-79
2022/02/12 12:30:58;;;;;;;14.25;4.70;;;12.50;60.20;;;;;;4921374;29;20054;-78
2022/02/12 12:33:28;;;;;;;18.67;4.28;;;11.90;58.40;;;;;;4938819;29;20106;-78
2022/02/12 12:35:55;;;;;;;11.10;4.43;;;11.30;58.30;;;;;;4938809;29;20440;-79
2022/02/12 12:38:35;;;;;;;14.18;4.38;;;12.00;61.00;;;;;;4956386;29;20034;-78
2022/02/12 12:41:25;;;;;;;12.48;4.10;;;11.90;60.60;;;;;;4936662;29;20076;-78
2022/02/12 12:44:18;;;;;;;12.20;4.88;;;11.90;60.20;;;;;;4934086;29;20031;-79
2022/02/12 12:46:49;;;;;;;14.85;4.65;;;12.60;61.50;;;;;;4939441;29;20035;-78